createdAt,value
2018-04-30T00:01:51.718Z,20.34
2018-04-30T00:04:19.174Z,20.33
2018-04-30T00:06:46.696Z,20.32
2018-04-30T00:09:14.764Z,20.47
2018-04-30T00:11:42.215Z,20.50
2018-04-30T00:14:09.949Z,20.47
2018-04-30T00:16:37.433Z,20.14
2018-04-30T00:19:04.918Z,20.05
2018-04-30T00:21:32.778Z,20.04
2018-04-30T00:24:01.240Z,19.90
2018-04-30T00:26:29.106Z,19.77
2018-04-30T00:28:56.567Z,19.77
2018-04-30T00:31:25.705Z,19.68
2018-04-30T00:33:53.164Z,19.83
2018-04-30T00:36:20.699Z,19.63
2018-04-30T00:38:48.430Z,19.19
2018-04-30T00:41:16.121Z,19.04
2018-04-30T00:43:43.713Z,19.12
2018-04-30T00:46:12.792Z,19.17
2018-04-30T00:48:40.263Z,19.14
2018-04-30T00:51:07.810Z,19.17
2018-04-30T00:53:35.280Z,19.21
2018-04-30T00:56:02.855Z,19.03
2018-04-30T00:58:31.161Z,18.69
2018-04-30T01:00:59.041Z,18.26
2018-04-30T01:03:27.201Z,18.16
2018-04-30T01:05:54.861Z,17.98
2018-04-30T01:08:22.354Z,17.96
2018-04-30T01:10:49.990Z,18.01
2018-04-30T01:13:17.544Z,17.87
2018-04-30T01:15:46.039Z,17.90
2018-04-30T01:18:13.627Z,17.69
2018-04-30T01:20:44.105Z,17.59
2018-04-30T01:23:11.634Z,17.52
2018-04-30T01:25:39.172Z,17.32
2018-04-30T01:28:06.862Z,17.20
2018-04-30T01:30:34.523Z,17.09
2018-04-30T01:33:02.005Z,17.08
2018-04-30T01:35:29.615Z,17.07
2018-04-30T01:37:57.153Z,17.00
2018-04-30T01:40:24.764Z,16.93
2018-04-30T01:42:52.286Z,16.72
2018-04-30T01:45:19.758Z,16.43
2018-04-30T01:47:47.575Z,16.47
2018-04-30T01:50:17.120Z,16.32
2018-04-30T01:52:44.927Z,16.32
2018-04-30T01:55:13.482Z,16.25
2018-04-30T01:57:41.783Z,16.24
2018-04-30T02:00:09.486Z,16.13
2018-04-30T02:02:37.072Z,16.15
2018-04-30T02:05:04.618Z,15.98
2018-04-30T02:07:33.416Z,15.94
2018-04-30T02:10:01.146Z,15.95
2018-04-30T02:12:29.118Z,16.04
2018-04-30T02:14:56.808Z,16.19
2018-04-30T02:17:24.491Z,15.95
2018-04-30T02:19:52.561Z,16.04
2018-04-30T02:22:20.069Z,15.80
2018-04-30T02:24:49.195Z,15.70
2018-04-30T02:27:16.699Z,15.69
2018-04-30T02:29:44.190Z,15.47
2018-04-30T02:32:13.039Z,15.45
2018-04-30T02:34:41.460Z,15.39
2018-04-30T02:37:08.922Z,15.46
2018-04-30T02:39:36.726Z,15.44
2018-04-30T02:42:05.244Z,15.47
2018-04-30T02:44:33.289Z,15.55
2018-04-30T02:47:00.749Z,15.56
2018-04-30T02:49:28.575Z,15.50
2018-04-30T02:51:57.046Z,15.32
2018-04-30T02:54:24.517Z,15.32
2018-04-30T02:56:52.580Z,15.32
2018-04-30T02:59:20.111Z,15.24
2018-04-30T03:01:47.557Z,15.26
2018-04-30T03:04:15.433Z,15.23
2018-04-30T03:06:42.964Z,15.09
2018-04-30T03:09:10.530Z,15.13
2018-04-30T03:11:38.857Z,14.95
2018-04-30T03:14:06.356Z,15.03
2018-04-30T03:16:34.103Z,15.09
2018-04-30T03:19:01.825Z,15.13
2018-04-30T03:21:29.911Z,15.15
2018-04-30T03:23:59.307Z,15.04
2018-04-30T03:26:26.779Z,15.10
2018-04-30T03:28:55.543Z,15.05
2018-04-30T03:31:23.035Z,14.92
2018-04-30T03:33:50.777Z,14.86
2018-04-30T03:36:18.278Z,14.69
2018-04-30T03:38:45.886Z,14.23
2018-04-30T03:41:14.604Z,13.99
2018-04-30T03:43:42.146Z,13.51
2018-04-30T03:46:09.623Z,13.51
2018-04-30T03:48:37.101Z,13.53
2018-04-30T03:51:05.535Z,13.47
2018-04-30T03:53:33.163Z,13.39
2018-04-30T03:56:01.580Z,13.33
2018-04-30T03:58:30.111Z,13.54
2018-04-30T04:04:15.473Z,13.45
2018-04-30T04:06:51.975Z,13.45
2018-04-30T04:09:19.448Z,13.43
2018-04-30T04:11:47.460Z,13.24
2018-04-30T04:14:14.963Z,13.29
2018-04-30T04:16:42.475Z,13.24
2018-04-30T04:19:10.623Z,13.39
2018-04-30T04:21:38.250Z,13.65
2018-04-30T04:24:05.826Z,13.64
2018-04-30T04:26:34.448Z,13.51
2018-04-30T04:29:02.816Z,13.38
2018-04-30T04:31:30.413Z,13.51
2018-04-30T04:33:58.671Z,13.46
2018-04-30T04:36:26.873Z,13.53
2018-04-30T04:38:55.104Z,13.40
2018-04-30T04:41:22.739Z,13.38
2018-04-30T04:43:50.487Z,13.51
2018-04-30T04:46:17.989Z,13.69
2018-04-30T04:48:45.457Z,13.82
2018-04-30T04:51:12.892Z,13.95
2018-04-30T04:53:41.471Z,14.05
2018-04-30T04:56:10.656Z,14.13
2018-04-30T04:58:38.131Z,14.14
2018-04-30T05:01:05.943Z,13.99
2018-04-30T05:03:34.379Z,13.90
2018-04-30T05:06:03.246Z,13.93
2018-04-30T05:08:31.755Z,13.90
2018-04-30T05:11:00.212Z,13.85
2018-04-30T05:13:27.777Z,13.88
2018-04-30T05:15:55.527Z,13.97
2018-04-30T05:18:24.034Z,14.06
2018-04-30T05:20:51.610Z,14.04
2018-04-30T05:23:19.058Z,13.93
2018-04-30T05:25:46.702Z,13.99
2018-04-30T05:28:14.212Z,13.96
2018-04-30T05:30:41.700Z,13.78
2018-04-30T05:33:09.200Z,13.89
2018-04-30T05:35:36.687Z,13.95
2018-04-30T05:38:04.321Z,13.94
2018-04-30T05:40:32.065Z,13.93
2018-04-30T05:43:00.268Z,13.95
2018-04-30T05:45:27.780Z,14.01
2018-04-30T05:47:55.360Z,13.88
2018-04-30T05:50:24.769Z,13.88
2018-04-30T05:52:52.962Z,14.02
2018-04-30T05:55:20.440Z,14.07
2018-04-30T05:57:51.544Z,13.89
2018-04-30T06:00:19.035Z,14.03
2018-04-30T06:02:46.559Z,14.13
2018-04-30T06:05:14.473Z,14.24
2018-04-30T06:07:41.945Z,14.13
2018-04-30T06:10:10.091Z,14.10
2018-04-30T06:12:38.358Z,14.08
2018-04-30T06:15:06.724Z,13.93
2018-04-30T06:17:34.261Z,14.47
2018-04-30T06:20:02.042Z,15.53
2018-04-30T06:22:29.620Z,16.56
2018-04-30T06:24:57.806Z,19.52
2018-04-30T06:27:25.312Z,21.21
2018-04-30T06:29:52.868Z,19.68
2018-04-30T06:32:20.357Z,17.22
2018-04-30T06:34:48.141Z,16.36
2018-04-30T06:37:15.601Z,15.97
2018-04-30T06:39:43.106Z,15.63
2018-04-30T06:42:10.553Z,15.44
2018-04-30T06:44:38.057Z,15.52
2018-04-30T06:47:05.538Z,15.05
2018-04-30T06:49:33.100Z,14.86
2018-04-30T06:52:01.061Z,15.08
2018-04-30T06:54:28.671Z,15.26
2018-04-30T06:56:57.120Z,15.23
2018-04-30T06:59:24.643Z,14.94
2018-04-30T07:01:52.125Z,15.28
2018-04-30T07:04:20.374Z,15.33
2018-04-30T07:06:48.504Z,15.29
2018-04-30T07:09:16.130Z,15.74
2018-04-30T07:11:43.608Z,15.76
2018-04-30T07:14:11.093Z,15.79
2018-04-30T07:16:38.811Z,15.54
2018-04-30T07:19:06.321Z,15.63
2018-04-30T07:21:33.795Z,15.58
2018-04-30T07:24:01.257Z,15.65
2018-04-30T07:26:28.732Z,15.54
2018-04-30T07:29:00.476Z,15.50
2018-04-30T07:31:28.539Z,15.57
2018-04-30T07:33:56.588Z,15.33
2018-04-30T07:36:24.047Z,15.62
2018-04-30T07:38:51.562Z,15.88
2018-04-30T07:41:20.452Z,15.67
2018-04-30T07:43:47.982Z,15.73
2018-04-30T07:46:15.481Z,15.99
2018-04-30T07:48:42.985Z,15.98
2018-04-30T07:51:10.463Z,16.05
2018-04-30T07:53:38.318Z,16.19
2018-04-30T07:56:05.808Z,16.26
2018-04-30T07:58:33.289Z,16.42
2018-04-30T08:01:00.731Z,16.50
2018-04-30T08:03:28.961Z,16.63
2018-04-30T08:05:56.463Z,16.57
2018-04-30T08:08:24.731Z,16.43
2018-04-30T08:10:52.223Z,16.31
2018-04-30T08:13:19.721Z,16.53
2018-04-30T08:15:47.241Z,16.51
2018-04-30T08:18:14.712Z,16.37
2018-04-30T08:20:42.336Z,16.55
2018-04-30T08:23:09.940Z,16.70
2018-04-30T08:25:38.580Z,16.83
2018-04-30T08:28:07.050Z,16.79
2018-04-30T08:30:34.508Z,16.84
2018-04-30T08:33:01.952Z,16.92
2018-04-30T08:35:29.821Z,17.03
2018-04-30T08:37:57.309Z,16.96
2018-04-30T08:40:25.560Z,16.85
2018-04-30T08:42:53.006Z,17.16
2018-04-30T08:45:20.495Z,17.49
2018-04-30T08:47:47.991Z,17.58
2018-04-30T08:50:15.591Z,17.54
2018-04-30T08:52:47.149Z,17.69
2018-04-30T08:55:14.634Z,17.79
2018-04-30T08:57:42.111Z,18.25
2018-04-30T09:00:09.596Z,18.31
2018-04-30T09:02:38.799Z,18.21
2018-04-30T09:05:07.858Z,18.22
2018-04-30T09:07:35.524Z,18.26
2018-04-30T09:10:03.320Z,18.09
2018-04-30T09:12:31.508Z,18.23
2018-04-30T09:14:59.085Z,18.38
2018-04-30T09:17:26.502Z,18.23
2018-04-30T09:19:54.057Z,18.43
2018-04-30T09:22:21.548Z,18.30
2018-04-30T09:24:50.140Z,18.36
2018-04-30T09:27:18.825Z,18.47
2018-04-30T09:29:46.364Z,18.49
2018-04-30T09:32:14.805Z,18.40
2018-04-30T09:34:42.434Z,18.39
2018-04-30T09:37:09.966Z,18.56
2018-04-30T09:39:37.442Z,18.74
2018-04-30T09:42:04.967Z,18.96
2018-04-30T09:44:32.753Z,19.02
2018-04-30T09:47:00.258Z,19.07
2018-04-30T09:49:28.350Z,18.89
2018-04-30T09:51:56.538Z,18.96
2018-04-30T09:54:24.147Z,19.18
2018-04-30T09:56:51.977Z,19.22
2018-04-30T09:59:20.493Z,19.25
2018-04-30T10:01:48.021Z,19.29
2018-04-30T10:04:15.736Z,19.46
2018-04-30T10:06:43.768Z,19.62
2018-04-30T10:09:12.956Z,19.77
2018-04-30T10:11:41.311Z,19.76
2018-04-30T10:14:08.777Z,19.68
2018-04-30T10:16:36.563Z,19.99
2018-04-30T10:19:04.842Z,20.24
2018-04-30T10:21:32.319Z,20.28
2018-04-30T10:23:59.812Z,20.05
2018-04-30T10:26:27.300Z,19.81
2018-04-30T10:28:55.808Z,19.88
2018-04-30T10:31:23.266Z,20.11
2018-04-30T10:33:50.887Z,20.20
2018-04-30T10:36:18.372Z,20.29
2018-04-30T10:38:46.970Z,20.65
2018-04-30T10:41:14.474Z,20.37
2018-04-30T10:43:42.094Z,20.60
2018-04-30T10:46:09.578Z,20.89
2018-04-30T10:48:37.067Z,21.02
2018-04-30T10:51:05.511Z,21.38
2018-04-30T10:53:32.991Z,20.99
2018-04-30T10:56:01.136Z,20.84
2018-04-30T10:58:28.616Z,20.97
2018-04-30T11:00:56.259Z,21.21
2018-04-30T11:03:24.684Z,21.26
2018-04-30T11:05:52.295Z,21.20
2018-04-30T11:08:19.871Z,21.41
2018-04-30T11:10:47.367Z,21.73
2018-04-30T11:13:15.246Z,21.57
2018-04-30T11:15:43.192Z,21.45
2018-04-30T11:18:11.185Z,21.57
2018-04-30T11:20:39.114Z,21.66
2018-04-30T11:23:06.604Z,21.67
2018-04-30T11:25:34.121Z,21.81
2018-04-30T11:28:02.293Z,21.52
2018-04-30T11:30:29.804Z,21.49
2018-04-30T11:32:57.841Z,21.50
2018-04-30T11:35:25.421Z,21.34
2018-04-30T11:37:52.866Z,21.11
2018-04-30T11:40:20.458Z,21.17
2018-04-30T11:42:49.242Z,21.44
2018-04-30T11:45:16.731Z,21.37
2018-04-30T11:47:45.119Z,21.69
2018-04-30T11:50:13.831Z,21.68
2018-04-30T11:52:41.328Z,21.72
2018-04-30T11:55:09.209Z,21.95
2018-04-30T11:57:37.528Z,22.22
2018-04-30T12:00:05.328Z,22.29
2018-04-30T12:02:32.885Z,22.37
2018-04-30T12:05:00.998Z,22.01
2018-04-30T12:07:29.808Z,22.09
2018-04-30T12:09:57.583Z,21.78
2018-04-30T12:12:25.063Z,21.91
2018-04-30T12:14:52.500Z,21.99
2018-04-30T12:17:20.912Z,22.06
2018-04-30T12:19:48.380Z,22.36
2018-04-30T12:22:16.710Z,22.26
2018-04-30T12:24:44.146Z,22.20
2018-04-30T12:27:11.637Z,22.46
2018-04-30T12:29:39.860Z,22.41
2018-04-30T12:32:10.208Z,22.61
2018-04-30T12:34:37.691Z,23.91
2018-04-30T12:37:05.163Z,25.42
2018-04-30T12:39:32.702Z,26.62
2018-04-30T12:42:00.208Z,27.58
2018-04-30T12:44:30.243Z,27.18
2018-04-30T12:46:59.490Z,27.53
2018-04-30T12:49:32.805Z,27.77
2018-04-30T12:52:02.802Z,29.02
2018-04-30T12:54:32.360Z,30.07
2018-04-30T12:57:02.142Z,30.58
2018-04-30T12:59:31.230Z,29.27
2018-04-30T13:02:00.409Z,28.70
2018-04-30T13:04:30.093Z,28.72
2018-04-30T13:07:01.468Z,28.41
2018-04-30T13:09:33.538Z,26.69
2018-04-30T13:12:03.314Z,25.22
2018-04-30T13:14:34.941Z,23.60
2018-04-30T13:17:04.125Z,23.42
2018-04-30T13:19:34.925Z,24.26
2018-04-30T13:22:04.689Z,23.57
2018-04-30T13:24:33.732Z,23.09
2018-04-30T13:27:03.885Z,22.79
2018-04-30T13:29:33.343Z,22.44
2018-04-30T13:32:02.833Z,22.31
2018-04-30T13:34:32.219Z,22.59
2018-04-30T13:37:01.751Z,22.94
2018-04-30T13:39:30.936Z,22.78
2018-04-30T13:42:00.348Z,23.07
2018-04-30T13:44:29.943Z,23.01
2018-04-30T13:46:59.092Z,22.84
2018-04-30T13:49:26.566Z,22.48
2018-04-30T13:51:55.922Z,22.01
2018-04-30T13:54:25.163Z,22.28
2018-04-30T13:56:54.986Z,22.42
2018-04-30T13:59:23.977Z,22.91
2018-04-30T14:01:53.404Z,22.48
2018-04-30T14:04:22.810Z,22.07
2018-04-30T14:06:52.171Z,21.82
2018-04-30T14:09:22.183Z,21.62
2018-04-30T14:11:55.442Z,21.24
2018-04-30T14:14:24.726Z,21.18
2018-04-30T14:16:54.139Z,21.29
2018-04-30T14:19:23.631Z,21.18
2018-04-30T14:21:52.848Z,20.68
2018-04-30T14:24:22.133Z,20.52
2018-04-30T14:26:55.707Z,20.46
2018-04-30T14:29:25.040Z,20.35
2018-04-30T14:31:54.029Z,20.52
2018-04-30T14:34:23.535Z,20.39
2018-04-30T14:36:52.784Z,20.21
2018-04-30T14:39:21.552Z,19.78
2018-04-30T14:41:51.771Z,19.74
2018-04-30T14:44:21.404Z,19.62
2018-04-30T14:46:51.799Z,19.47
2018-04-30T14:49:21.347Z,19.38
2018-04-30T14:51:50.866Z,19.30
2018-04-30T14:54:19.985Z,19.43
2018-04-30T14:56:51.249Z,19.65
2018-04-30T14:59:21.078Z,19.66
2018-04-30T15:01:48.942Z,19.71
2018-04-30T15:04:19.055Z,19.79
2018-04-30T15:06:48.222Z,20.03
2018-04-30T15:09:18.426Z,20.30
2018-04-30T16:07:23.761Z,18.43
2018-04-30T16:09:52.842Z,18.30
2018-04-30T16:12:22.308Z,17.98
2018-04-30T16:14:51.853Z,17.51
2018-04-30T16:17:21.293Z,17.36
2018-04-30T16:19:50.674Z,17.19
2018-04-30T16:22:19.991Z,17.18
2018-04-30T16:24:49.584Z,17.51
2018-04-30T16:27:21.926Z,17.63
2018-04-30T16:29:55.294Z,17.88
2018-04-30T16:32:29.156Z,18.04
2018-04-30T16:34:58.092Z,18.06
2018-04-30T16:37:27.193Z,18.10
2018-04-30T16:39:56.177Z,18.29
2018-04-30T16:42:23.725Z,18.46
2018-04-30T16:44:53.002Z,18.54
2018-04-30T16:47:24.752Z,18.29
2018-04-30T16:49:57.639Z,18.28
2018-04-30T16:52:33.137Z,18.30
2018-04-30T16:55:03.202Z,18.39
2018-04-30T16:57:32.900Z,18.25
2018-04-30T17:00:02.027Z,18.09
2018-04-30T17:02:38.884Z,17.89
2018-04-30T17:05:10.579Z,17.94
2018-04-30T17:07:44.805Z,18.07
2018-04-30T17:10:15.850Z,18.16
2018-04-30T17:12:54.668Z,18.18
2018-04-30T17:15:23.614Z,18.16
2018-04-30T17:17:54.492Z,17.96
2018-04-30T17:20:24.194Z,17.71
2018-04-30T17:22:57.333Z,17.65
2018-04-30T17:25:26.114Z,17.57
2018-04-30T17:27:59.911Z,17.50
2018-04-30T17:30:29.312Z,17.27
2018-04-30T17:32:59.804Z,17.33
2018-04-30T17:35:39.336Z,17.44
2018-04-30T17:38:13.618Z,17.21
2018-04-30T17:40:46.240Z,17.14
2018-04-30T17:43:20.542Z,17.15
2018-04-30T17:49:35.909Z,17.10
2018-04-30T17:52:08.936Z,17.08
2018-04-30T17:54:47.550Z,17.06
2018-04-30T17:57:19.373Z,16.98
2018-04-30T17:59:50.033Z,17.00
2018-04-30T18:02:27.210Z,16.98
2018-04-30T18:04:55.471Z,16.61
2018-04-30T18:07:25.168Z,16.62
2018-04-30T18:09:58.844Z,16.63
2018-04-30T18:12:27.812Z,16.77
2018-04-30T18:14:57.188Z,16.66
2018-04-30T18:17:30.127Z,16.72
2018-04-30T18:19:59.157Z,16.68
2018-04-30T18:22:32.329Z,16.76
2018-04-30T18:25:01.747Z,16.84
2018-04-30T18:27:29.710Z,16.63
2018-04-30T18:29:59.233Z,16.53
2018-04-30T18:32:28.186Z,16.48
2018-04-30T18:34:56.748Z,16.59
2018-04-30T18:37:25.702Z,16.65
2018-04-30T18:39:55.214Z,16.57
2018-04-30T18:42:24.924Z,16.47
2018-04-30T18:44:53.895Z,16.58
2018-04-30T18:47:22.441Z,16.64
2018-04-30T18:49:54.849Z,16.70
2018-04-30T18:52:24.032Z,16.64
2018-04-30T18:54:52.940Z,16.61
2018-04-30T18:57:21.525Z,16.64
2018-04-30T18:59:51.453Z,16.44
2018-04-30T19:02:20.178Z,16.21
2018-04-30T19:05:01.138Z,16.24
2018-04-30T19:07:31.696Z,16.25
2018-04-30T19:10:01.708Z,16.28
2018-04-30T19:12:30.820Z,16.18
2018-04-30T19:14:59.710Z,16.14
2018-04-30T19:17:33.795Z,16.13
2018-04-30T19:20:02.652Z,16.05
2018-04-30T19:22:32.129Z,16.10
2018-04-30T19:25:01.417Z,15.97
2018-04-30T19:27:30.677Z,16.03
2018-04-30T19:29:58.174Z,16.07
2018-04-30T19:32:27.603Z,16.13
2018-04-30T19:34:56.811Z,16.06
2018-04-30T19:37:26.234Z,16.08
2018-04-30T19:39:55.816Z,16.03
2018-04-30T19:42:25.381Z,16.10
2018-04-30T19:44:56.621Z,16.16
2018-04-30T19:47:26.236Z,16.24
2018-04-30T19:49:55.657Z,16.32
2018-04-30T19:52:25.526Z,16.37
2018-04-30T19:54:54.803Z,16.43
2018-04-30T19:57:22.871Z,16.38
2018-04-30T19:59:52.177Z,16.37
2018-04-30T20:02:25.599Z,16.38
2018-04-30T20:04:54.890Z,16.20
2018-04-30T20:07:24.644Z,16.24
2018-04-30T20:09:55.042Z,16.14
2018-04-30T20:12:24.741Z,16.16
2018-04-30T20:14:53.881Z,16.18
2018-04-30T20:17:23.933Z,16.08
2018-04-30T20:19:55.816Z,16.00
2018-04-30T20:22:23.292Z,15.92
2018-04-30T20:24:52.956Z,15.90
2018-04-30T20:27:24.383Z,15.98
2018-04-30T20:30:01.819Z,15.92
2018-04-30T20:32:32.195Z,15.98
2018-04-30T20:35:03.885Z,15.96
2018-04-30T20:37:31.441Z,15.74
2018-04-30T20:40:01.255Z,15.93
2018-04-30T20:45:02.427Z,16.02
2018-04-30T20:47:32.459Z,15.96
2018-04-30T20:50:03.470Z,15.87
2018-04-30T20:52:34.968Z,15.93
2018-04-30T20:55:04.212Z,16.01
2018-04-30T20:57:33.216Z,16.03
2018-04-30T21:00:03.780Z,16.08
2018-04-30T21:02:33.609Z,15.77
2018-04-30T21:05:03.213Z,15.81
2018-04-30T21:07:31.576Z,15.80
2018-04-30T21:10:02.421Z,15.73
2018-04-30T21:12:31.409Z,15.73
2018-04-30T21:15:00.643Z,15.58
2018-04-30T21:17:30.450Z,15.58
2018-04-30T21:20:00.430Z,15.52
2018-04-30T21:22:29.886Z,15.36
2018-04-30T21:24:59.434Z,15.39
2018-04-30T21:27:29.674Z,15.37
2018-04-30T21:29:59.447Z,15.31
2018-04-30T21:32:29.422Z,15.37
2018-04-30T21:34:59.960Z,15.34
2018-04-30T21:37:29.344Z,14.86
2018-04-30T21:39:58.581Z,14.97
2018-04-30T21:42:28.074Z,14.99
2018-04-30T21:44:57.261Z,14.87
2018-04-30T21:47:26.457Z,14.96
2018-04-30T21:49:56.851Z,14.94
2018-04-30T21:52:26.592Z,14.79
2018-04-30T21:54:55.591Z,14.93
2018-04-30T21:57:24.488Z,14.82
2018-04-30T21:59:54.032Z,14.82
2018-04-30T22:02:23.647Z,15.06
2018-04-30T22:04:53.129Z,15.07
2018-04-30T22:07:20.805Z,15.06
2018-04-30T22:09:50.002Z,15.11
2018-04-30T22:12:19.341Z,15.06
2018-04-30T22:14:48.428Z,15.14
2018-04-30T22:17:17.519Z,15.21
2018-04-30T22:19:46.768Z,15.19
2018-04-30T22:22:16.158Z,15.10
2018-04-30T22:24:46.609Z,15.18
2018-04-30T22:27:19.917Z,15.21
2018-04-30T22:29:49.513Z,15.19
2018-04-30T22:32:18.632Z,15.23
2018-04-30T22:34:48.652Z,15.26
2018-04-30T22:37:19.143Z,15.37
2018-04-30T22:39:48.268Z,15.40
2018-04-30T22:42:21.877Z,15.28
2018-04-30T22:44:55.520Z,15.25
2018-04-30T22:47:25.298Z,15.09
2018-04-30T22:49:54.590Z,15.04
2018-04-30T22:52:25.840Z,14.79
2018-04-30T22:54:55.501Z,14.82
2018-04-30T22:57:25.036Z,14.90
2018-04-30T22:59:53.700Z,14.99
2018-04-30T23:02:23.189Z,15.11
2018-04-30T23:04:52.966Z,15.14
2018-04-30T23:07:22.309Z,15.16
2018-04-30T23:09:50.927Z,15.07
2018-04-30T23:12:20.296Z,14.95
2018-04-30T23:14:49.216Z,14.91
2018-04-30T23:17:18.834Z,14.86
2018-04-30T23:19:48.539Z,14.76
2018-04-30T23:22:18.507Z,14.70
2018-04-30T23:24:46.030Z,14.60
2018-04-30T23:27:17.157Z,14.49
2018-04-30T23:29:46.285Z,14.45
2018-04-30T23:32:16.626Z,14.53
2018-04-30T23:34:46.950Z,14.56
2018-04-30T23:37:19.111Z,14.63
2018-04-30T23:39:48.405Z,14.62
2018-04-30T23:42:18.031Z,14.47
2018-04-30T23:44:59.623Z,14.47
2018-04-30T23:47:29.016Z,14.39
2018-04-30T23:49:58.591Z,14.39
2018-04-30T23:52:28.237Z,14.26
2018-04-30T23:54:58.269Z,14.22
2018-04-30T23:57:27.962Z,14.32
2018-04-30T23:59:56.823Z,14.33
